sensor_id;sensor_type;location;lat;lon;timestamp;pressure;altitude;pressure_sealevel;temperature;humidity
70781;BME280;59514;48.810;2.134;2022-12-19T00:00:40;100538.59;;;4.72;100.00
70781;BME280;59514;48.810;2.134;2022-12-19T00:03:06;100535.41;;;4.76;99.96
70781;BME280;59514;48.810;2.134;2022-12-19T00:05:35;100543.19;;;4.78;99.93
70781;BME280;59514;48.810;2.134;2022-12-19T00:08:00;100532.56;;;4.78;99.83
70781;BME280;59514;48.810;2.134;2022-12-19T00:10:26;100527.88;;;4.80;99.74
70781;BME280;59514;48.810;2.134;2022-12-19T00:12:51;100533.00;;;4.81;99.37
70781;BME280;59514;48.810;2.134;2022-12-19T00:15:16;100536.50;;;4.82;99.01
70781;BME280;59514;48.810;2.134;2022-12-19T00:17:42;100539.16;;;4.82;99.93
70781;BME280;59514;48.810;2.134;2022-12-19T00:20:08;100544.13;;;4.85;99.16
70781;BME280;59514;48.810;2.134;2022-12-19T00:22:33;100542.09;;;4.87;99.58
70781;BME280;59514;48.810;2.134;2022-12-19T00:24:58;100544.78;;;4.87;99.09
70781;BME280;59514;48.810;2.134;2022-12-19T00:27:24;100534.19;;;4.93;99.33
70781;BME280;59514;48.810;2.134;2022-12-19T00:29:49;100539.34;;;4.95;98.55
70781;BME280;59514;48.810;2.134;2022-12-19T00:32:14;100532.81;;;4.97;98.75
70781;BME280;59514;48.810;2.134;2022-12-19T00:34:39;100527.34;;;4.99;98.08
70781;BME280;59514;48.810;2.134;2022-12-19T00:37:05;100524.69;;;4.99;98.54
70781;BME280;59514;48.810;2.134;2022-12-19T00:39:30;100521.63;;;5.02;98.20
70781;BME280;59514;48.810;2.134;2022-12-19T00:41:55;100518.78;;;5.03;98.77
70781;BME280;59514;48.810;2.134;2022-12-19T00:44:21;100515.47;;;5.01;98.24
70781;BME280;59514;48.810;2.134;2022-12-19T00:46:46;100499.34;;;5.03;98.24
70781;BME280;59514;48.810;2.134;2022-12-19T00:49:11;100498.53;;;5.02;98.75
70781;BME280;59514;48.810;2.134;2022-12-19T00:51:37;100502.66;;;5.05;98.78
70781;BME280;59514;48.810;2.134;2022-12-19T00:54:03;100491.19;;;5.04;98.30
70781;BME280;59514;48.810;2.134;2022-12-19T00:56:31;100506.75;;;5.07;98.11
70781;BME280;59514;48.810;2.134;2022-12-19T00:58:57;100498.59;;;5.09;98.27
70781;BME280;59514;48.810;2.134;2022-12-19T01:01:25;100499.06;;;5.12;98.13
70781;BME280;59514;48.810;2.134;2022-12-19T01:03:51;100488.84;;;5.16;97.88
70781;BME280;59514;48.810;2.134;2022-12-19T01:06:17;100499.88;;;5.13;97.94
70781;BME280;59514;48.810;2.134;2022-12-19T01:08:43;100508.50;;;5.15;97.42
70781;BME280;59514;48.810;2.134;2022-12-19T01:11:09;100495.19;;;5.15;98.06
70781;BME280;59514;48.810;2.134;2022-12-19T01:13:36;100495.81;;;5.17;97.84
70781;BME280;59514;48.810;2.134;2022-12-19T01:16:04;100498.75;;;5.22;97.73
70781;BME280;59514;48.810;2.134;2022-12-19T01:18:30;100490.75;;;5.22;98.06
70781;BME280;59514;48.810;2.134;2022-12-19T01:20:58;100500.03;;;5.26;98.33
70781;BME280;59514;48.810;2.134;2022-12-19T01:23:24;100493.50;;;5.29;98.17
70781;BME280;59514;48.810;2.134;2022-12-19T01:25:52;100496.63;;;5.32;98.08
70781;BME280;59514;48.810;2.134;2022-12-19T01:28:17;100503.78;;;5.32;97.94
70781;BME280;59514;48.810;2.134;2022-12-19T01:30:43;100499.91;;;5.34;97.79
70781;BME280;59514;48.810;2.134;2022-12-19T01:33:13;100500.56;;;5.36;97.58
70781;BME280;59514;48.810;2.134;2022-12-19T01:35:40;100491.72;;;5.36;97.80
70781;BME280;59514;48.810;2.134;2022-12-19T01:38:06;100494.41;;;5.36;97.94
70781;BME280;59514;48.810;2.134;2022-12-19T01:40:32;100494.84;;;5.39;98.03
70781;BME280;59514;48.810;2.134;2022-12-19T01:42:57;100491.19;;;5.40;97.63
70781;BME280;59514;48.810;2.134;2022-12-19T01:45:24;100497.38;;;5.47;98.09
70781;BME280;59514;48.810;2.134;2022-12-19T01:47:52;100495.75;;;5.46;98.22
70781;BME280;59514;48.810;2.134;2022-12-19T01:50:27;100495.00;;;5.52;98.05
70781;BME280;59514;48.810;2.134;2022-12-19T01:52:53;100484.59;;;5.57;98.05
70781;BME280;59514;48.810;2.134;2022-12-19T01:55:19;100492.22;;;5.60;98.05
70781;BME280;59514;48.810;2.134;2022-12-19T01:57:46;100486.50;;;5.63;98.02
70781;BME280;59514;48.810;2.134;2022-12-19T02:00:12;100498.03;;;5.70;98.34
70781;BME280;59514;48.810;2.134;2022-12-19T02:03:00;100498.09;;;5.77;98.20
70781;BME280;59514;48.810;2.134;2022-12-19T02:05:27;100491.69;;;5.71;98.84
70781;BME280;59514;48.810;2.134;2022-12-19T02:07:53;100488.66;;;5.74;99.13
70781;BME280;59514;48.810;2.134;2022-12-19T02:10:19;100487.06;;;5.80;99.19
70781;BME280;59514;48.810;2.134;2022-12-19T02:12:45;100489.19;;;5.84;98.84
70781;BME280;59514;48.810;2.134;2022-12-19T02:15:12;100496.16;;;5.85;98.80
70781;BME280;59514;48.810;2.134;2022-12-19T02:21:03;100488.66;;;5.95;99.23
70781;BME280;59514;48.810;2.134;2022-12-19T02:24:04;100482.34;;;5.96;98.80
70781;BME280;59514;48.810;2.134;2022-12-19T02:29:32;100493.47;;;6.06;99.08
70781;BME280;59514;48.810;2.134;2022-12-19T02:32:09;100495.97;;;6.08;98.83
70781;BME280;59514;48.810;2.134;2022-12-19T02:37:34;100480.97;;;6.07;99.87
70781;BME280;59514;48.810;2.134;2022-12-19T02:42:34;100482.03;;;6.13;100.00
70781;BME280;59514;48.810;2.134;2022-12-19T02:45:04;100473.88;;;6.21;99.54
70781;BME280;59514;48.810;2.134;2022-12-19T02:47:31;100475.16;;;6.25;99.32
70781;BME280;59514;48.810;2.134;2022-12-19T02:49:57;100480.88;;;6.22;99.79
70781;BME280;59514;48.810;2.134;2022-12-19T02:54:49;100474.72;;;6.21;99.90
70781;BME280;59514;48.810;2.134;2022-12-19T03:00:05;100473.13;;;6.27;99.38
70781;BME280;59514;48.810;2.134;2022-12-19T03:02:40;100470.06;;;6.30;98.88
70781;BME280;59514;48.810;2.134;2022-12-19T03:08:09;100465.75;;;6.29;99.08
70781;BME280;59514;48.810;2.134;2022-12-19T03:10:46;100465.38;;;6.32;99.09
70781;BME280;59514;48.810;2.134;2022-12-19T03:13:17;100473.38;;;6.32;99.10
70781;BME280;59514;48.810;2.134;2022-12-19T03:15:45;100471.91;;;6.29;99.06
70781;BME280;59514;48.810;2.134;2022-12-19T03:18:11;100472.34;;;6.33;98.64
70781;BME280;59514;48.810;2.134;2022-12-19T03:20:56;100468.03;;;6.32;98.92
70781;BME280;59514;48.810;2.134;2022-12-19T03:23:24;100469.03;;;6.31;99.11
70781;BME280;59514;48.810;2.134;2022-12-19T03:26:02;100461.69;;;6.33;98.87
70781;BME280;59514;48.810;2.134;2022-12-19T03:29:02;100457.38;;;6.32;99.29
70781;BME280;59514;48.810;2.134;2022-12-19T03:31:32;100454.09;;;6.30;99.26
70781;BME280;59514;48.810;2.134;2022-12-19T03:34:05;100456.53;;;6.31;99.48
70781;BME280;59514;48.810;2.134;2022-12-19T03:36:41;100448.97;;;6.35;99.19
70781;BME280;59514;48.810;2.134;2022-12-19T03:39:09;100453.31;;;6.36;99.05
70781;BME280;59514;48.810;2.134;2022-12-19T03:41:37;100455.56;;;6.39;99.16
70781;BME280;59514;48.810;2.134;2022-12-19T03:44:22;100464.44;;;6.46;98.45
70781;BME280;59514;48.810;2.134;2022-12-19T03:46:57;100465.44;;;6.45;98.98
70781;BME280;59514;48.810;2.134;2022-12-19T03:49:24;100453.38;;;6.49;98.52
70781;BME280;59514;48.810;2.134;2022-12-19T03:51:54;100466.31;;;6.52;98.39
70781;BME280;59514;48.810;2.134;2022-12-19T03:54:27;100455.66;;;6.52;98.66
70781;BME280;59514;48.810;2.134;2022-12-19T03:57:07;100451.38;;;6.57;98.23
70781;BME280;59514;48.810;2.134;2022-12-19T03:59:40;100462.03;;;6.57;98.50
70781;BME280;59514;48.810;2.134;2022-12-19T04:02:08;100458.75;;;6.55;98.23
70781;BME280;59514;48.810;2.134;2022-12-19T04:04:38;100467.59;;;6.56;98.23
70781;BME280;59514;48.810;2.134;2022-12-19T04:07:04;100466.16;;;6.60;98.39
70781;BME280;59514;48.810;2.134;2022-12-19T04:09:32;100476.44;;;6.63;97.71
70781;BME280;59514;48.810;2.134;2022-12-19T04:12:02;100474.38;;;6.65;98.07
70781;BME280;59514;48.810;2.134;2022-12-19T04:14:32;100480.56;;;6.65;97.97
70781;BME280;59514;48.810;2.134;2022-12-19T04:17:24;100477.47;;;6.62;97.91
70781;BME280;59514;48.810;2.134;2022-12-19T04:22:31;100476.06;;;6.66;97.97
70781;BME280;59514;48.810;2.134;2022-12-19T04:24:59;100480.56;;;6.65;97.89
70781;BME280;59514;48.810;2.134;2022-12-19T04:27:28;100474.63;;;6.70;97.40
70781;BME280;59514;48.810;2.134;2022-12-19T04:29:57;100471.97;;;6.70;97.70
70781;BME280;59514;48.810;2.134;2022-12-19T04:32:23;100483.66;;;6.69;97.54
70781;BME280;59514;48.810;2.134;2022-12-19T04:34:49;100482.81;;;6.68;97.69
70781;BME280;59514;48.810;2.134;2022-12-19T04:37:14;100487.16;;;6.69;97.89
70781;BME280;59514;48.810;2.134;2022-12-19T04:39:40;100491.44;;;6.70;97.79
70781;BME280;59514;48.810;2.134;2022-12-19T04:42:06;100480.78;;;6.70;97.85
70781;BME280;59514;48.810;2.134;2022-12-19T04:44:31;100478.31;;;6.69;97.55
70781;BME280;59514;48.810;2.134;2022-12-19T04:46:56;100489.41;;;6.66;97.81
70781;BME280;59514;48.810;2.134;2022-12-19T04:49:22;100484.06;;;6.72;97.81
70781;BME280;59514;48.810;2.134;2022-12-19T04:51:47;100476.91;;;6.73;97.77
70781;BME280;59514;48.810;2.134;2022-12-19T04:54:13;100479.56;;;6.73;97.42
70781;BME280;59514;48.810;2.134;2022-12-19T04:56:38;100470.94;;;6.71;97.99
70781;BME280;59514;48.810;2.134;2022-12-19T04:59:04;100478.94;;;6.71;97.73
70781;BME280;59514;48.810;2.134;2022-12-19T05:01:29;100473.59;;;6.71;97.61
70781;BME280;59514;48.810;2.134;2022-12-19T05:03:54;100475.91;;;6.74;97.85
70781;BME280;59514;48.810;2.134;2022-12-19T05:06:20;100475.91;;;6.74;97.85
70781;BME280;59514;48.810;2.134;2022-12-19T05:08:45;100466.47;;;6.78;97.91
70781;BME280;59514;48.810;2.134;2022-12-19T05:11:13;100467.09;;;6.80;96.91
70781;BME280;59514;48.810;2.134;2022-12-19T05:13:38;100466.91;;;6.81;97.15
70781;BME280;59514;48.810;2.134;2022-12-19T05:16:06;100465.69;;;6.84;97.28
70781;BME280;59514;48.810;2.134;2022-12-19T05:18:32;100471.41;;;6.81;97.49
70781;BME280;59514;48.810;2.134;2022-12-19T05:20:58;100470.41;;;6.82;97.09
70781;BME280;59514;48.810;2.134;2022-12-19T05:23:24;100465.91;;;6.89;97.02
70781;BME280;59514;48.810;2.134;2022-12-19T05:25:50;100464.28;;;6.94;96.77
70781;BME280;59514;48.810;2.134;2022-12-19T05:28:16;100458.72;;;6.96;96.34
70781;BME280;59514;48.810;2.134;2022-12-19T05:30:42;100455.88;;;6.97;96.67
70781;BME280;59514;48.810;2.134;2022-12-19T05:33:07;100467.78;;;6.95;97.02
70781;BME280;59514;48.810;2.134;2022-12-19T05:35:34;100477.81;;;6.93;97.06
70781;BME280;59514;48.810;2.134;2022-12-19T05:38:00;100473.09;;;6.95;97.22
70781;BME280;59514;48.810;2.134;2022-12-19T05:40:25;100474.75;;;6.96;97.42
70781;BME280;59514;48.810;2.134;2022-12-19T05:42:50;100466.34;;;6.99;97.48
70781;BME280;59514;48.810;2.134;2022-12-19T05:45:16;100471.06;;;6.97;97.63
70781;BME280;59514;48.810;2.134;2022-12-19T05:47:43;100467.34;;;6.91;97.85
70781;BME280;59514;48.810;2.134;2022-12-19T05:50:11;100467.16;;;6.93;97.87
70781;BME280;59514;48.810;2.134;2022-12-19T05:52:36;100466.53;;;6.91;97.56
70781;BME280;59514;48.810;2.134;2022-12-19T05:55:02;100462.81;;;6.92;97.66
70781;BME280;59514;48.810;2.134;2022-12-19T05:57:27;100476.16;;;6.92;97.64
70781;BME280;59514;48.810;2.134;2022-12-19T05:59:53;100472.28;;;6.94;97.50
70781;BME280;59514;48.810;2.134;2022-12-19T06:02:18;100465.72;;;6.97;96.80
70781;BME280;59514;48.810;2.134;2022-12-19T06:04:44;100470.03;;;6.98;96.90
70781;BME280;59514;48.810;2.134;2022-12-19T06:07:09;100470.22;;;6.96;96.45
70781;BME280;59514;48.810;2.134;2022-12-19T06:09:35;100470.84;;;6.98;96.70
70781;BME280;59514;48.810;2.134;2022-12-19T06:12:00;100467.56;;;6.96;96.90
70781;BME280;59514;48.810;2.134;2022-12-19T06:14:25;100464.69;;;6.98;96.62
70781;BME280;59514;48.810;2.134;2022-12-19T06:16:51;100471.28;;;6.95;96.78
70781;BME280;59514;48.810;2.134;2022-12-19T06:19:19;100471.47;;;7.01;96.04
70781;BME280;59514;48.810;2.134;2022-12-19T06:21:44;100479.28;;;7.02;95.96
70781;BME280;59514;48.810;2.134;2022-12-19T06:24:10;100469.03;;;6.99;96.10
70781;BME280;59514;48.810;2.134;2022-12-19T06:26:35;100474.75;;;6.96;96.22
70781;BME280;59514;48.810;2.134;2022-12-19T06:29:00;100469.03;;;6.99;96.15
70781;BME280;59514;48.810;2.134;2022-12-19T06:31:26;100472.31;;;7.01;95.90
70781;BME280;59514;48.810;2.134;2022-12-19T06:33:51;100463.28;;;7.02;95.95
70781;BME280;59514;48.810;2.134;2022-12-19T06:36:20;100465.31;;;7.00;96.26
70781;BME280;59514;48.810;2.134;2022-12-19T06:38:47;100466.16;;;7.01;96.12
70781;BME280;59514;48.810;2.134;2022-12-19T06:41:14;100460.19;;;6.98;96.75
70781;BME280;59514;48.810;2.134;2022-12-19T06:43:59;100467.97;;;7.00;95.86
70781;BME280;59514;48.810;2.134;2022-12-19T06:46:24;100460.81;;;7.01;95.81
70781;BME280;59514;48.810;2.134;2022-12-19T06:48:50;100465.75;;;7.04;95.57
70781;BME280;59514;48.810;2.134;2022-12-19T06:51:15;100462.88;;;7.05;95.06
70781;BME280;59514;48.810;2.134;2022-12-19T06:53:40;100458.56;;;7.04;95.15
70781;BME280;59514;48.810;2.134;2022-12-19T06:56:06;100456.72;;;7.05;95.31
70781;BME280;59514;48.810;2.134;2022-12-19T06:58:32;100458.38;;;7.06;95.19
70781;BME280;59514;48.810;2.134;2022-12-19T07:00:58;100453.66;;;7.08;94.53
70781;BME280;59514;48.810;2.134;2022-12-19T07:03:29;100456.75;;;7.11;94.19
70781;BME280;59514;48.810;2.134;2022-12-19T07:05:56;100470.09;;;7.11;94.36
70781;BME280;59514;48.810;2.134;2022-12-19T07:08:21;100468.25;;;7.12;94.40
70781;BME280;59514;48.810;2.134;2022-12-19T07:10:47;100471.94;;;7.11;94.25
70781;BME280;59514;48.810;2.134;2022-12-19T07:13:12;100462.28;;;7.10;94.14
70781;BME280;59514;48.810;2.134;2022-12-19T07:15:38;100463.72;;;7.12;94.03
70781;BME280;59514;48.810;2.134;2022-12-19T07:18:06;100465.75;;;7.10;93.99
70781;BME280;59514;48.810;2.134;2022-12-19T07:20:33;100477.28;;;7.11;93.92
70781;BME280;59514;48.810;2.134;2022-12-19T07:23:03;100470.31;;;7.10;93.96
70781;BME280;59514;48.810;2.134;2022-12-19T07:25:29;100484.66;;;7.09;94.18
70781;BME280;59514;48.810;2.134;2022-12-19T07:27:55;100483.44;;;7.11;94.08
70781;BME280;59514;48.810;2.134;2022-12-19T07:30:20;100477.28;;;7.11;94.03
70781;BME280;59514;48.810;2.134;2022-12-19T07:32:46;100488.78;;;7.11;93.96
70781;BME280;59514;48.810;2.134;2022-12-19T07:35:11;100487.13;;;7.10;93.88
70781;BME280;59514;48.810;2.134;2022-12-19T07:37:37;100479.53;;;7.07;93.81
70781;BME280;59514;48.810;2.134;2022-12-19T07:40:02;100490.00;;;7.09;94.12
70781;BME280;59514;48.810;2.134;2022-12-19T07:42:28;100481.16;;;7.08;93.82
70781;BME280;59514;48.810;2.134;2022-12-19T07:44:54;100489.16;;;7.08;93.81
70781;BME280;59514;48.810;2.134;2022-12-19T07:47:20;100483.66;;;7.10;93.41
70781;BME280;59514;48.810;2.134;2022-12-19T07:49:45;100483.44;;;7.11;93.55
70781;BME280;59514;48.810;2.134;2022-12-19T07:52:10;100494.75;;;7.13;92.88
70781;BME280;59514;48.810;2.134;2022-12-19T07:54:36;100503.59;;;7.14;92.88
70781;BME280;59514;48.810;2.134;2022-12-19T07:57:01;100505.22;;;7.15;92.77
70781;BME280;59514;48.810;2.134;2022-12-19T07:59:27;100506.06;;;7.15;92.51
70781;BME280;59514;48.810;2.134;2022-12-19T08:01:52;100516.72;;;7.15;92.22
70781;BME280;59514;48.810;2.134;2022-12-19T08:04:18;100512.63;;;7.19;92.14
70781;BME280;59514;48.810;2.134;2022-12-19T08:06:44;100511.59;;;7.20;91.73
70781;BME280;59514;48.810;2.134;2022-12-19T08:09:10;100503.59;;;7.20;91.91
70781;BME280;59514;48.810;2.134;2022-12-19T08:11:36;100508.94;;;7.20;91.76
70781;BME280;59514;48.810;2.134;2022-12-19T08:14:01;100508.13;;;7.20;91.46
70781;BME280;59514;48.810;2.134;2022-12-19T08:16:27;100513.25;;;7.21;91.68
70781;BME280;59514;48.810;2.134;2022-12-19T08:18:52;100508.94;;;7.20;91.42
70781;BME280;59514;48.810;2.134;2022-12-19T08:21:18;100510.19;;;7.24;91.03
70781;BME280;59514;48.810;2.134;2022-12-19T08:23:44;100506.50;;;7.25;91.06
70781;BME280;59514;48.810;2.134;2022-12-19T08:26:16;100515.13;;;7.27;91.12
70781;BME280;59514;48.810;2.134;2022-12-19T08:28:45;100518.44;;;7.29;90.97
70781;BME280;59514;48.810;2.134;2022-12-19T08:31:14;100521.72;;;7.31;90.59
70781;BME280;59514;48.810;2.134;2022-12-19T08:33:40;100519.06;;;7.31;90.55
70781;BME280;59514;48.810;2.134;2022-12-19T08:36:08;100519.22;;;7.30;90.59
70781;BME280;59514;48.810;2.134;2022-12-19T08:38:34;100521.72;;;7.31;90.73
70781;BME280;59514;48.810;2.134;2022-12-19T08:40:59;100526.84;;;7.33;90.49
70781;BME280;59514;48.810;2.134;2022-12-19T08:43:26;100523.34;;;7.32;90.36
70781;BME280;59514;48.810;2.134;2022-12-19T08:45:51;100529.94;;;7.36;89.93
70781;BME280;59514;48.810;2.134;2022-12-19T08:48:17;100529.56;;;7.39;89.45
70781;BME280;59514;48.810;2.134;2022-12-19T08:50:52;100517.22;;;7.38;89.43
70781;BME280;59514;48.810;2.134;2022-12-19T08:53:19;100518.06;;;7.39;89.00
70781;BME280;59514;48.810;2.134;2022-12-19T08:55:45;100516.22;;;7.39;89.40
70781;BME280;59514;48.810;2.134;2022-12-19T08:58:10;100514.78;;;7.43;88.72
70781;BME280;59514;48.810;2.134;2022-12-19T09:00:36;100517.03;;;7.46;88.81
70781;BME280;59514;48.810;2.134;2022-12-19T09:03:01;100510.88;;;7.46;88.62
70781;BME280;59514;48.810;2.134;2022-12-19T09:05:26;100508.41;;;7.44;88.72
70781;BME280;59514;48.810;2.134;2022-12-19T09:07:52;100519.09;;;7.44;88.72
70781;BME280;59514;48.810;2.134;2022-12-19T09:10:18;100514.78;;;7.50;88.23
70781;BME280;59514;48.810;2.134;2022-12-19T09:12:44;100526.28;;;7.50;88.32
70781;BME280;59514;48.810;2.134;2022-12-19T09:15:09;100517.66;;;7.48;88.20
70781;BME280;59514;48.810;2.134;2022-12-19T09:17:34;100519.13;;;7.51;87.81
70781;BME280;59514;48.810;2.134;2022-12-19T09:20:00;100514.59;;;7.51;88.13
70781;BME280;59514;48.810;2.134;2022-12-19T09:22:25;100508.22;;;7.52;88.21
70781;BME280;59514;48.810;2.134;2022-12-19T09:24:50;100514.19;;;7.54;87.92
70781;BME280;59514;48.810;2.134;2022-12-19T09:27:16;100525.69;;;7.55;87.90
70781;BME280;59514;48.810;2.134;2022-12-19T09:29:41;100523.03;;;7.55;87.77
70781;BME280;59514;48.810;2.134;2022-12-19T09:32:07;100542.56;;;7.55;88.06
70781;BME280;59514;48.810;2.134;2022-12-19T09:34:33;100536.81;;;7.58;87.69
70781;BME280;59514;48.810;2.134;2022-12-19T09:37:00;100534.97;;;7.59;87.80
70781;BME280;59514;48.810;2.134;2022-12-19T09:39:25;100538.25;;;7.61;87.50
70781;BME280;59514;48.810;2.134;2022-12-19T09:41:58;100545.06;;;7.63;87.72
70781;BME280;59514;48.810;2.134;2022-12-19T09:47:17;100548.53;;;7.64;87.15
70781;BME280;59514;48.810;2.134;2022-12-19T09:49:45;100553.88;;;7.64;87.39
70781;BME280;59514;48.810;2.134;2022-12-19T09:52:17;100557.38;;;7.64;87.40
70781;BME280;59514;48.810;2.134;2022-12-19T09:54:55;100546.28;;;7.67;87.15
70781;BME280;59514;48.810;2.134;2022-12-19T10:00:20;100556.56;;;7.70;86.66
70781;BME280;59514;48.810;2.134;2022-12-19T10:05:32;100549.78;;;7.74;87.07
70781;BME280;59514;48.810;2.134;2022-12-19T10:07:58;100553.09;;;7.76;86.66
70781;BME280;59514;48.810;2.134;2022-12-19T10:10:35;100543.03;;;7.78;86.61
70781;BME280;59514;48.810;2.134;2022-12-19T10:18:56;100534.59;;;7.88;86.66
70781;BME280;59514;48.810;2.134;2022-12-19T10:26:53;100525.56;;;7.96;86.00
70781;BME280;59514;48.810;2.134;2022-12-19T10:32:31;100522.69;;;8.04;85.88
70781;BME280;59514;48.810;2.134;2022-12-19T10:34:58;100519.63;;;8.07;85.73
70781;BME280;59514;48.810;2.134;2022-12-19T10:37:29;100526.22;;;8.11;86.15
70781;BME280;59514;48.810;2.134;2022-12-19T10:43:26;100523.94;;;8.14;86.06
70781;BME280;59514;48.810;2.134;2022-12-19T10:45:58;100522.72;;;8.17;86.33
70781;BME280;59514;48.810;2.134;2022-12-19T10:48:27;100529.47;;;8.19;86.10
70781;BME280;59514;48.810;2.134;2022-12-19T10:50:52;100527.63;;;8.20;86.33
70781;BME280;59514;48.810;2.134;2022-12-19T10:53:25;100528.88;;;8.24;86.54
70781;BME280;59514;48.810;2.134;2022-12-19T10:55:52;100528.50;;;8.27;86.24
70781;BME280;59514;48.810;2.134;2022-12-19T10:58:32;100516.56;;;8.29;86.34
70781;BME280;59514;48.810;2.134;2022-12-19T11:03:30;100521.28;;;8.34;86.55
70781;BME280;59514;48.810;2.134;2022-12-19T11:05:57;100514.50;;;8.38;86.60
70781;BME280;59514;48.810;2.134;2022-12-19T11:11:08;100507.50;;;8.50;86.49
70781;BME280;59514;48.810;2.134;2022-12-19T11:13:45;100511.56;;;8.59;85.95
70781;BME280;59514;48.810;2.134;2022-12-19T11:16:12;100524.75;;;8.67;85.79
70781;BME280;59514;48.810;2.134;2022-12-19T11:18:46;100515.25;;;8.71;85.40
70781;BME280;59514;48.810;2.134;2022-12-19T11:23:46;100510.34;;;8.75;85.57
70781;BME280;59514;48.810;2.134;2022-12-19T11:26:27;100501.25;;;8.82;86.52
70781;BME280;59514;48.810;2.134;2022-12-19T11:29:01;100510.50;;;8.86;85.77
70781;BME280;59514;48.810;2.134;2022-12-19T11:31:27;100506.16;;;8.85;86.83
70781;BME280;59514;48.810;2.134;2022-12-19T11:33:55;100492.56;;;8.93;86.12
70781;BME280;59514;48.810;2.134;2022-12-19T11:36:44;100490.94;;;8.92;85.85
70781;BME280;59514;48.810;2.134;2022-12-19T11:39:27;100486.41;;;8.93;86.60
70781;BME280;59514;48.810;2.134;2022-12-19T11:41:59;100485.75;;;8.97;86.58
70781;BME280;59514;48.810;2.134;2022-12-19T11:47:10;100477.31;;;9.00;87.04
70781;BME280;59514;48.810;2.134;2022-12-19T11:49:50;100474.19;;;9.03;86.54
70781;BME280;59514;48.810;2.134;2022-12-19T11:55:17;100465.53;;;9.08;86.39
70781;BME280;59514;48.810;2.134;2022-12-19T11:57:44;100466.16;;;9.03;87.45
70781;BME280;59514;48.810;2.134;2022-12-19T12:00:12;100465.75;;;9.06;88.00
70781;BME280;59514;48.810;2.134;2022-12-19T12:05:41;100459.09;;;9.15;87.23
70781;BME280;59514;48.810;2.134;2022-12-19T12:11:10;100461.28;;;9.31;86.41
70781;BME280;59514;48.810;2.134;2022-12-19T12:14:05;100440.47;;;9.33;86.55
70781;BME280;59514;48.810;2.134;2022-12-19T12:19:26;100440.44;;;9.40;86.87
70781;BME280;59514;48.810;2.134;2022-12-19T12:35:22;100413.25;;;9.36;87.12
70781;BME280;59514;48.810;2.134;2022-12-19T12:44:06;100416.47;;;9.45;87.76
70781;BME280;59514;48.810;2.134;2022-12-19T12:46:38;100407.03;;;9.42;87.84
70781;BME280;59514;48.810;2.134;2022-12-19T12:49:10;100407.41;;;9.46;87.80
70781;BME280;59514;48.810;2.134;2022-12-19T12:51:39;100405.72;;;9.51;87.80
70781;BME280;59514;48.810;2.134;2022-12-19T12:54:09;100391.50;;;9.51;87.77
70781;BME280;59514;48.810;2.134;2022-12-19T12:56:36;100389.59;;;9.58;88.12
70781;BME280;59514;48.810;2.134;2022-12-19T12:59:05;100382.53;;;9.64;87.88
70781;BME280;59514;48.810;2.134;2022-12-19T13:04:20;100370.06;;;9.76;86.37
70781;BME280;59514;48.810;2.134;2022-12-19T13:11:50;100386.34;;;9.99;85.36
70781;BME280;59514;48.810;2.134;2022-12-19T13:17:07;100391.09;;;9.97;85.93
70781;BME280;59514;48.810;2.134;2022-12-19T13:19:38;100403.91;;;9.95;87.15
70781;BME280;59514;48.810;2.134;2022-12-19T13:24:54;100390.50;;;9.95;86.98
70781;BME280;59514;48.810;2.134;2022-12-19T13:37:40;100405.25;;;9.86;88.86
70781;BME280;59514;48.810;2.134;2022-12-19T13:43:09;100406.53;;;9.77;89.92
70781;BME280;59514;48.810;2.134;2022-12-19T13:46:00;100387.13;;;9.81;88.76
70781;BME280;59514;48.810;2.134;2022-12-19T13:48:30;100363.44;;;9.78;89.66
70781;BME280;59514;48.810;2.134;2022-12-19T13:50:58;100374.09;;;9.85;89.23
70781;BME280;59514;48.810;2.134;2022-12-19T13:53:27;100379.91;;;9.82;88.53
70781;BME280;59514;48.810;2.134;2022-12-19T13:56:01;100368.72;;;9.85;88.78
70781;BME280;59514;48.810;2.134;2022-12-19T13:58:30;100361.13;;;9.82;89.81
70781;BME280;59514;48.810;2.134;2022-12-19T14:00:59;100344.00;;;9.83;89.52
70781;BME280;59514;48.810;2.134;2022-12-19T14:03:33;100365.84;;;9.86;89.25
70781;BME280;59514;48.810;2.134;2022-12-19T14:06:16;100356.97;;;9.86;89.08
70781;BME280;59514;48.810;2.134;2022-12-19T14:08:45;100356.16;;;9.85;89.68
70781;BME280;59514;48.810;2.134;2022-12-19T14:11:15;100347.88;;;9.87;89.41
70781;BME280;59514;48.810;2.134;2022-12-19T14:13:48;100335.06;;;9.89;89.51
70781;BME280;59514;48.810;2.134;2022-12-19T14:16:33;100329.47;;;9.90;89.37
70781;BME280;59514;48.810;2.134;2022-12-19T14:18:58;100352.97;;;9.95;89.04
70781;BME280;59514;48.810;2.134;2022-12-19T14:21:25;100360.41;;;9.93;89.18
70781;BME280;59514;48.810;2.134;2022-12-19T14:24:07;100357.31;;;9.96;89.32
70781;BME280;59514;48.810;2.134;2022-12-19T14:26:33;100349.84;;;9.98;88.63
70781;BME280;59514;48.810;2.134;2022-12-19T14:29:01;100339.31;;;9.96;89.10
70781;BME280;59514;48.810;2.134;2022-12-19T14:31:29;100337.94;;;9.94;89.33
70781;BME280;59514;48.810;2.134;2022-12-19T14:33:57;100348.78;;;9.99;88.68
70781;BME280;59514;48.810;2.134;2022-12-19T14:36:24;100366.16;;;9.96;89.97
70781;BME280;59514;48.810;2.134;2022-12-19T14:38:50;100366.97;;;9.97;89.35
70781;BME280;59514;48.810;2.134;2022-12-19T14:41:38;100369.44;;;9.98;89.69
70781;BME280;59514;48.810;2.134;2022-12-19T14:44:22;100382.63;;;10.00;89.32
70781;BME280;59514;48.810;2.134;2022-12-19T14:47:24;100376.69;;;9.98;90.17
70781;BME280;59514;48.810;2.134;2022-12-19T14:49:51;100384.72;;;9.98;90.04
70781;BME280;59514;48.810;2.134;2022-12-19T14:55:14;100383.00;;;10.03;89.34
70781;BME280;59514;48.810;2.134;2022-12-19T14:57:50;100376.22;;;10.01;90.06
70781;BME280;59514;48.810;2.134;2022-12-19T15:00:32;100371.03;;;10.06;89.81
70781;BME280;59514;48.810;2.134;2022-12-19T15:03:07;100362.38;;;10.04;89.51
70781;BME280;59514;48.810;2.134;2022-12-19T15:05:33;100363.78;;;10.06;89.48
70781;BME280;59514;48.810;2.134;2022-12-19T15:07:59;100353.88;;;10.07;88.98